Terminal Aerodrome Forecast
Issued by NWS

Home | Current Version | Previous Version | Graphics & Text | Print | Product List | Glossary On
Versions: 1 2 3 4 5 6 7 8 9 10 11 12 13 14
000
FTUS41 KCLE 211448 AAA
TAFFDY
TAF AMD
KFDY 211448Z 2115/2212 26010KT P6SM SCT020
      TEMPO 2115/2116 BKN020
     FM211600 27012G20KT P6SM SCT035
     FM212300 28010KT P6SM BKN025 OVC040=

USA.gov is the U.S. government's official web portal to all federal, state and local government web resources and services.